createdAt,value
2023-05-04T00:02:18.412Z,101263.66
2023-05-04T00:04:45.013Z,101264.66
2023-05-04T00:07:11.663Z,101259.79
2023-05-04T00:09:38.464Z,101261.34
2023-05-04T00:12:06.754Z,101258.95
2023-05-04T00:14:33.428Z,101255.77
2023-05-04T00:17:00.027Z,101256.96
2023-05-04T00:19:26.590Z,101258.25
2023-05-04T00:21:53.126Z,101258.15
2023-05-04T00:24:19.648Z,101259.03
2023-05-04T00:26:46.346Z,101260.70
2023-05-04T00:29:12.934Z,101259.84
2023-05-04T00:31:39.607Z,101259.23
2023-05-04T00:34:06.323Z,101260.44
2023-05-04T00:36:32.888Z,101260.56
2023-05-04T00:38:59.487Z,101258.01
2023-05-04T00:41:26.106Z,101258.42
2023-05-04T00:43:52.673Z,101255.46
2023-05-04T00:46:19.462Z,101261.38
2023-05-04T00:48:48.514Z,101259.86
2023-05-04T00:51:17.035Z,101260.50
2023-05-04T00:53:44.077Z,101262.18
2023-05-04T00:56:11.896Z,101259.11
2023-05-04T00:58:38.507Z,101262.66
2023-05-04T01:01:05.367Z,101262.17
2023-05-04T01:03:33.729Z,101259.46
2023-05-04T01:06:19.545Z,101261.08
2023-05-04T01:08:57.882Z,101261.91
2023-05-04T01:11:42.733Z,101257.98
2023-05-04T01:14:10.410Z,101260.47
2023-05-04T01:16:37.083Z,101258.96
2023-05-04T01:19:03.987Z,101259.52
2023-05-04T01:21:31.296Z,101260.54
2023-05-04T01:23:59.126Z,101259.45
2023-05-04T01:26:29.909Z,101258.74
2023-05-04T01:29:04.918Z,101257.44
2023-05-04T01:31:35.399Z,101252.84
2023-05-04T01:34:03.349Z,101252.98
2023-05-04T01:36:30.822Z,101252.39
2023-05-04T01:39:00.218Z,101251.02
2023-05-04T01:41:27.412Z,101254.84
2023-05-04T01:43:54.418Z,101255.27
2023-05-04T01:46:21.446Z,101252.27
2023-05-04T01:48:48.159Z,101251.34
2023-05-04T01:51:14.790Z,101249.27
2023-05-04T01:53:41.380Z,101250.48
2023-05-04T01:56:09.398Z,101248.46
2023-05-04T01:58:35.993Z,101250.98
2023-05-04T02:01:02.578Z,101253.75
2023-05-04T02:03:29.510Z,101250.90
2023-05-04T02:05:56.186Z,101252.89
2023-05-04T02:08:22.932Z,101252.27
2023-05-04T02:10:49.603Z,101251.39
2023-05-04T02:13:16.706Z,101253.30
2023-05-04T02:18:44.881Z,101254.98
2023-05-04T02:21:11.613Z,101255.16
2023-05-04T02:23:38.184Z,101255.39
2023-05-04T02:26:04.763Z,101253.89
2023-05-04T02:28:31.322Z,101255.70
2023-05-04T02:30:57.970Z,101254.14
2023-05-04T02:33:24.509Z,101251.72
2023-05-04T02:35:51.882Z,101255.19
2023-05-04T02:38:18.420Z,101255.14
2023-05-04T02:40:45.010Z,101257.00
2023-05-04T02:43:11.653Z,101254.55
2023-05-04T02:45:38.283Z,101254.10
2023-05-04T02:48:05.099Z,101256.32
2023-05-04T02:50:32.080Z,101254.29
2023-05-04T02:52:58.705Z,101253.67
2023-05-04T02:55:25.804Z,101253.72
2023-05-04T02:57:52.382Z,101252.69
2023-05-04T03:00:19.103Z,101252.20
2023-05-04T03:02:45.877Z,101251.30
2023-05-04T03:05:12.699Z,101248.98
2023-05-04T03:07:39.402Z,101252.17
2023-05-04T03:10:07.353Z,101249.69
2023-05-04T03:12:34.370Z,101250.72
2023-05-04T03:15:01.055Z,101251.55
2023-05-04T03:17:27.779Z,101254.02
2023-05-04T03:19:55.238Z,101255.85
2023-05-04T03:22:22.432Z,101257.37
2023-05-04T03:24:49.485Z,101254.02
2023-05-04T03:27:17.293Z,101258.60
2023-05-04T03:29:44.163Z,101257.86
2023-05-04T03:32:13.377Z,101261.73
2023-05-04T03:34:40.231Z,101262.20
2023-05-04T03:37:08.144Z,101260.64
2023-05-04T03:39:34.851Z,101262.11
2023-05-04T03:42:02.639Z,101263.16
2023-05-04T03:44:29.387Z,101261.84
2023-05-04T03:46:56.116Z,101262.25
2023-05-04T03:49:22.705Z,101259.23
2023-05-04T03:51:49.314Z,101263.54
2023-05-04T03:54:15.920Z,101266.38
2023-05-04T03:56:42.518Z,101265.48
2023-05-04T03:59:09.195Z,101270.51
2023-05-04T04:01:36.509Z,101274.63
2023-05-04T04:04:03.581Z,101274.89
2023-05-04T04:06:30.994Z,101275.39
2023-05-04T04:08:57.603Z,101275.55
2023-05-04T04:11:24.189Z,101277.68
2023-05-04T04:13:51.136Z,101282.59
2023-05-04T04:16:17.783Z,101282.97
2023-05-04T04:18:44.523Z,101288.00
2023-05-04T04:21:11.238Z,101287.67
2023-05-04T04:23:38.871Z,101288.65
2023-05-04T04:26:08.342Z,101289.19
2023-05-04T04:28:34.963Z,101290.39
2023-05-04T04:31:03.298Z,101292.23
2023-05-04T04:33:29.965Z,101297.76
2023-05-04T04:35:56.581Z,101299.60
2023-05-04T04:38:23.234Z,101299.45
2023-05-04T04:40:49.768Z,101296.46
2023-05-04T04:43:16.330Z,101296.16
2023-05-04T04:45:42.960Z,101293.24
2023-05-04T04:48:09.992Z,101292.04
2023-05-04T04:50:39.191Z,101290.92
2023-05-04T04:53:05.784Z,101295.48
2023-05-04T04:55:32.590Z,101291.86
2023-05-04T04:57:59.172Z,101289.20
2023-05-04T05:00:26.241Z,101286.73
2023-05-04T05:02:52.896Z,101289.21
2023-05-04T05:05:19.725Z,101289.11
2023-05-04T05:07:46.338Z,101285.16
2023-05-04T05:10:19.889Z,101281.83
2023-05-04T05:12:51.949Z,101282.27
2023-05-04T05:15:18.677Z,101287.74
2023-05-04T05:17:45.282Z,101289.68
2023-05-04T05:20:12.050Z,101291.70
2023-05-04T05:22:39.406Z,101287.01
2023-05-04T05:25:07.542Z,101286.57
2023-05-04T05:27:34.646Z,101286.88
2023-05-04T05:30:02.421Z,101280.33
2023-05-04T05:32:29.782Z,101284.14
2023-05-04T05:34:56.835Z,101286.73
2023-05-04T05:37:24.150Z,101283.29
2023-05-04T05:39:51.206Z,101282.58
2023-05-04T05:42:18.252Z,101283.63
2023-05-04T05:44:44.828Z,101283.65
2023-05-04T05:47:11.395Z,101285.05
2023-05-04T05:49:38.484Z,101283.31
2023-05-04T05:52:05.322Z,101283.61
2023-05-04T05:54:33.494Z,101282.98
2023-05-04T05:57:00.206Z,101279.11
2023-05-04T05:59:26.799Z,101283.14
2023-05-04T06:01:53.559Z,101277.77
2023-05-04T06:04:20.290Z,101278.14
2023-05-04T06:06:46.982Z,101275.86
2023-05-04T06:09:13.605Z,101280.44
2023-05-04T06:11:40.114Z,101282.84
2023-05-04T06:14:06.743Z,101278.16
2023-05-04T06:16:33.387Z,101274.84
2023-05-04T06:18:59.998Z,101272.63
2023-05-04T06:21:26.651Z,101273.77
2023-05-04T06:23:53.263Z,101276.45
2023-05-04T06:26:20.211Z,101272.86
2023-05-04T06:28:46.941Z,101276.95
2023-05-04T06:31:13.645Z,101278.27
2023-05-04T06:33:40.205Z,101277.89
2023-05-04T06:36:07.441Z,101272.54
2023-05-04T06:38:35.739Z,101269.05
2023-05-04T06:41:04.624Z,101272.98
2023-05-04T06:43:32.441Z,101274.38
2023-05-04T06:46:03.871Z,101275.02
2023-05-04T06:48:31.826Z,101272.94
2023-05-04T06:51:00.652Z,101270.30
2023-05-04T06:53:28.399Z,101267.45
2023-05-04T06:55:55.253Z,101262.70
2023-05-04T06:58:22.003Z,101259.45
2023-05-04T07:00:48.906Z,101261.06
2023-05-04T07:03:15.824Z,101259.92
2023-05-04T07:05:44.563Z,101257.11
2023-05-04T07:08:11.787Z,101259.05
2023-05-04T07:10:38.556Z,101261.09
2023-05-04T07:13:05.890Z,101256.67
2023-05-04T07:15:33.897Z,101256.23
2023-05-04T07:18:01.495Z,101260.62
2023-05-04T07:20:28.687Z,101262.37
2023-05-04T07:22:57.055Z,101254.80
2023-05-04T07:25:30.497Z,101254.36
2023-05-04T07:27:58.267Z,101251.08
2023-05-04T07:30:25.048Z,101252.23
2023-05-04T07:32:52.013Z,101253.42
2023-05-04T07:35:19.246Z,101256.04
2023-05-04T07:37:46.499Z,101256.08
2023-05-04T07:40:14.775Z,101253.66
2023-05-04T07:42:42.249Z,101250.59
2023-05-04T07:45:09.861Z,101255.13
2023-05-04T07:47:37.193Z,101257.95
2023-05-04T07:50:07.452Z,101257.77
2023-05-04T07:52:34.313Z,101253.91
2023-05-04T07:55:00.932Z,101254.20
2023-05-04T07:57:27.553Z,101257.05
2023-05-04T07:59:55.435Z,101252.07
2023-05-04T08:02:22.889Z,101254.56
2023-05-04T08:04:50.046Z,101256.66
2023-05-04T08:07:17.157Z,101252.39
2023-05-04T08:09:43.844Z,101249.00
2023-05-04T08:12:12.301Z,101249.61
2023-05-04T08:14:39.908Z,101248.44
2023-05-04T08:17:06.556Z,101250.83
2023-05-04T08:19:33.915Z,101247.33
2023-05-04T08:22:00.747Z,101243.02
2023-05-04T08:24:27.456Z,101243.48
2023-05-04T08:27:06.626Z,101247.06
2023-05-04T08:29:37.210Z,101247.46
2023-05-04T08:32:04.316Z,101242.52
2023-05-04T08:34:31.461Z,101237.35
2023-05-04T08:36:58.306Z,101234.95
2023-05-04T08:39:25.220Z,101234.70
2023-05-04T08:41:51.870Z,101229.35
2023-05-04T08:44:21.165Z,101234.31
2023-05-04T08:46:54.291Z,101239.71
2023-05-04T08:49:21.786Z,101239.18
2023-05-04T08:51:51.270Z,101236.68
2023-05-04T08:54:18.569Z,101237.04
2023-05-04T08:56:47.224Z,101240.86
2023-05-04T08:59:22.055Z,101239.27
2023-05-04T09:01:53.060Z,101236.13
2023-05-04T09:04:20.708Z,101238.08
2023-05-04T09:06:47.528Z,101230.16
2023-05-04T09:09:14.626Z,101231.80
2023-05-04T09:11:41.428Z,101233.69
2023-05-04T09:14:08.180Z,101233.45
2023-05-04T09:16:36.617Z,101232.03
2023-05-04T09:19:04.819Z,101228.37
2023-05-04T09:21:32.211Z,101225.31
2023-05-04T09:23:59.316Z,101221.17
2023-05-04T09:26:30.629Z,101220.58
2023-05-04T09:29:09.725Z,101215.34
2023-05-04T09:31:48.057Z,101212.35
2023-05-04T09:34:15.144Z,101213.78
2023-05-04T09:36:42.288Z,101216.96
2023-05-04T09:39:11.500Z,101217.58
2023-05-04T09:41:38.458Z,101222.77
2023-05-04T09:44:05.465Z,101222.17
2023-05-04T09:46:33.027Z,101214.38
2023-05-04T09:49:00.801Z,101207.23
2023-05-04T09:51:27.622Z,101207.93
2023-05-04T09:53:54.657Z,101207.44
2023-05-04T09:56:37.591Z,101201.77
2023-05-04T09:59:05.341Z,101205.29
2023-05-04T10:01:32.442Z,101202.48
2023-05-04T10:03:59.418Z,101197.26
2023-05-04T10:06:28.949Z,101195.90
2023-05-04T10:08:56.679Z,101194.73
2023-05-04T10:11:25.756Z,101190.89
2023-05-04T10:13:54.607Z,101188.58
2023-05-04T10:16:46.061Z,101188.42
2023-05-04T10:19:38.352Z,101186.08
2023-05-04T10:22:32.942Z,101188.85
2023-05-04T10:25:22.506Z,101188.33
2023-05-04T10:27:49.097Z,101185.19
2023-05-04T10:30:18.521Z,101181.99
2023-05-04T10:32:45.871Z,101179.88
2023-05-04T10:35:12.837Z,101175.75
2023-05-04T10:37:51.285Z,101173.88
2023-05-04T10:40:18.219Z,101171.42
2023-05-04T10:42:45.234Z,101164.63
2023-05-04T10:45:13.091Z,101160.29
2023-05-04T10:47:40.939Z,101158.15
2023-05-04T10:50:14.694Z,101156.91
2023-05-04T10:52:48.935Z,101160.68
2023-05-04T10:55:17.135Z,101155.83
2023-05-04T10:58:02.247Z,101152.59
2023-05-04T11:00:46.604Z,101148.11
2023-05-04T11:03:14.530Z,101144.31
2023-05-04T11:05:52.748Z,101141.48
2023-05-04T11:08:26.507Z,101135.97
2023-05-04T11:11:05.845Z,101138.90
2023-05-04T11:13:41.500Z,101139.95
2023-05-04T11:16:12.370Z,101136.34
2023-05-04T11:18:39.500Z,101136.34
2023-05-04T11:21:06.257Z,101136.38
2023-05-04T11:23:33.492Z,101130.74
2023-05-04T11:26:12.311Z,101125.90
2023-05-04T11:28:39.617Z,101123.96
2023-05-04T11:31:17.445Z,101118.57
2023-05-04T11:33:51.570Z,101117.77
2023-05-04T11:36:19.433Z,101112.31
2023-05-04T11:38:47.007Z,101110.90
2023-05-04T11:41:13.876Z,101108.96
2023-05-04T11:43:43.661Z,101102.90
2023-05-04T11:46:11.203Z,101101.98
2023-05-04T11:48:38.900Z,101098.77
2023-05-04T11:51:06.567Z,101099.82
2023-05-04T11:53:41.610Z,101096.27
2023-05-04T11:56:09.850Z,101094.35
2023-05-04T11:58:37.265Z,101092.90
2023-05-04T12:01:04.965Z,101092.89
2023-05-04T12:03:48.623Z,101090.53
2023-05-04T12:06:33.059Z,101088.04
2023-05-04T12:09:06.910Z,101092.13
2023-05-04T12:11:39.528Z,101090.09
2023-05-04T12:14:12.703Z,101084.48
2023-05-04T12:16:43.040Z,101089.29
2023-05-04T12:19:15.728Z,101090.66
2023-05-04T12:21:52.403Z,101085.91
2023-05-04T12:24:25.199Z,101079.27
2023-05-04T12:26:54.257Z,101077.45
2023-05-04T12:29:23.723Z,101077.87
2023-05-04T12:31:51.927Z,101068.36
2023-05-04T12:34:21.757Z,101064.85
2023-05-04T12:36:52.341Z,101060.96
2023-05-04T12:39:21.758Z,101053.98
2023-05-04T12:41:50.795Z,101053.84
2023-05-04T12:44:21.278Z,101057.46
2023-05-04T12:46:50.214Z,101054.35
2023-05-04T12:49:19.051Z,101052.75
2023-05-04T12:51:48.155Z,101052.47
2023-05-04T12:54:17.773Z,101053.72
2023-05-04T12:56:46.751Z,101050.83
2023-05-04T12:59:15.784Z,101053.15
2023-05-04T13:01:45.189Z,101050.15
2023-05-04T13:04:14.137Z,101043.71
2023-05-04T13:14:11.191Z,101035.15
2023-05-04T13:16:37.792Z,101038.14
2023-05-04T13:19:04.949Z,101042.03
2023-05-04T13:21:31.920Z,101036.81
2023-05-04T13:23:59.378Z,101032.26
2023-05-04T13:26:26.154Z,101029.70
2023-05-04T13:28:52.887Z,101028.81
2023-05-04T13:31:19.628Z,101026.67
2023-05-04T13:33:46.726Z,101023.58
2023-05-04T13:36:13.509Z,101023.49
2023-05-04T13:38:40.121Z,101016.04
2023-05-04T13:41:06.821Z,101011.23
2023-05-04T13:43:33.420Z,101008.18
2023-05-04T13:46:04.431Z,101002.41
2023-05-04T13:48:32.916Z,100999.13
2023-05-04T13:50:59.593Z,101001.00
2023-05-04T13:53:26.446Z,100996.30
2023-05-04T13:55:53.087Z,100991.64
2023-05-04T13:58:19.675Z,100990.20
2023-05-04T14:00:46.718Z,100987.88
2023-05-04T14:03:13.329Z,100982.38
2023-05-04T14:05:39.958Z,100981.40
2023-05-04T14:08:06.654Z,100979.68
2023-05-04T14:10:34.934Z,100971.37
2023-05-04T14:13:02.642Z,100964.80
2023-05-04T14:15:29.495Z,100964.78
2023-05-04T14:17:56.612Z,100958.48
2023-05-04T14:20:23.300Z,100957.84
2023-05-04T14:22:49.865Z,100959.35
2023-05-04T14:25:16.571Z,100955.17
2023-05-04T14:27:43.513Z,100953.88
2023-05-04T14:30:10.953Z,100949.74
2023-05-04T14:32:37.523Z,100947.83
2023-05-04T14:35:08.518Z,100947.15
2023-05-04T14:37:38.119Z,100945.16
2023-05-04T14:40:06.591Z,100949.41
2023-05-04T14:42:33.473Z,100947.89
2023-05-04T14:45:00.068Z,100948.35
2023-05-04T14:47:27.642Z,100946.89
2023-05-04T14:49:54.398Z,100947.35
2023-05-04T14:52:21.267Z,100946.61
2023-05-04T14:54:47.793Z,100944.37
2023-05-04T14:57:14.440Z,100945.56
2023-05-04T14:59:42.135Z,100939.50
2023-05-04T15:02:09.194Z,100936.98
2023-05-04T15:04:36.441Z,100934.51
2023-05-04T15:07:04.610Z,100934.70
2023-05-04T15:09:31.677Z,100936.36
2023-05-04T15:11:58.362Z,100933.17
2023-05-04T15:14:26.425Z,100929.04
2023-05-04T15:16:53.069Z,100926.98
2023-05-04T15:19:21.097Z,100928.74
2023-05-04T15:21:48.639Z,100933.33
2023-05-04T15:24:15.242Z,100935.91
2023-05-04T15:26:41.834Z,100931.02
2023-05-04T15:29:08.792Z,100924.80
2023-05-04T15:31:35.995Z,100925.34
2023-05-04T15:34:02.799Z,100923.92
2023-05-04T15:36:31.745Z,100924.41
2023-05-04T15:38:58.383Z,100925.01
2023-05-04T15:41:24.978Z,100923.20
2023-05-04T15:43:51.591Z,100919.23
2023-05-04T15:46:18.165Z,100913.37
2023-05-04T15:48:44.930Z,100910.00
2023-05-04T15:51:14.970Z,100904.17
2023-05-04T15:53:41.685Z,100900.94
2023-05-04T15:56:08.434Z,100900.61
2023-05-04T15:58:35.080Z,100897.83
2023-05-04T16:01:04.037Z,100898.45
2023-05-04T16:03:31.815Z,100899.83
2023-05-04T16:05:58.600Z,100898.41
2023-05-04T16:08:25.998Z,100895.70
2023-05-04T16:10:54.124Z,100892.76
2023-05-04T16:13:20.895Z,100894.77
2023-05-04T16:15:51.572Z,100894.73
2023-05-04T16:18:18.582Z,100897.05
2023-05-04T16:20:46.291Z,100900.16
2023-05-04T16:23:15.207Z,100894.25
2023-05-04T16:25:42.429Z,100889.80
2023-05-04T16:28:10.268Z,100893.42
2023-05-04T16:30:37.855Z,100893.66
2023-05-04T16:33:04.664Z,100895.30
2023-05-04T16:35:32.189Z,100898.19
2023-05-04T16:37:59.023Z,100895.20
2023-05-04T16:40:25.734Z,100898.00
2023-05-04T16:42:52.415Z,100894.84
2023-05-04T16:45:19.557Z,100893.61
2023-05-04T16:47:46.413Z,100893.27
2023-05-04T16:50:14.318Z,100891.05
2023-05-04T16:52:41.955Z,100891.01
2023-05-04T16:55:12.063Z,100890.01
2023-05-04T16:57:39.159Z,100889.14
2023-05-04T17:00:07.109Z,100887.09
2023-05-04T17:02:34.346Z,100891.05
2023-05-04T17:05:01.169Z,100887.77
2023-05-04T17:07:28.529Z,100890.02
2023-05-04T17:09:55.152Z,100886.63
2023-05-04T17:12:23.423Z,100889.20
2023-05-04T17:14:50.210Z,100888.10
2023-05-04T17:17:16.849Z,100886.38
2023-05-04T17:19:43.414Z,100884.81
2023-05-04T17:22:11.204Z,100883.73
2023-05-04T17:24:38.067Z,100885.23
2023-05-04T17:27:04.975Z,100888.52
2023-05-04T17:29:31.757Z,100890.55
2023-05-04T17:31:58.703Z,100887.61
2023-05-04T17:34:25.346Z,100885.91
2023-05-04T17:36:52.206Z,100891.30
2023-05-04T17:39:19.904Z,100890.36
2023-05-04T17:41:48.801Z,100893.93
2023-05-04T17:44:16.433Z,100892.52
2023-05-04T17:46:43.743Z,100892.71
2023-05-04T17:49:10.650Z,100898.84
2023-05-04T17:51:37.434Z,100900.55
2023-05-04T17:54:04.209Z,100898.98
2023-05-04T17:56:31.032Z,100901.40
2023-05-04T17:58:57.735Z,100905.79
2023-05-04T18:01:24.500Z,100906.27
2023-05-04T18:03:51.235Z,100909.16
2023-05-04T18:06:18.089Z,100914.23
2023-05-04T18:08:44.938Z,100913.31
2023-05-04T18:11:12.352Z,100915.20
2023-05-04T18:13:39.001Z,100912.17
2023-05-04T18:16:05.920Z,100910.59
2023-05-04T18:18:33.310Z,100914.04
2023-05-04T18:21:00.932Z,100915.92
2023-05-04T18:23:27.670Z,100919.11
2023-05-04T18:25:54.388Z,100925.72
2023-05-04T18:28:21.149Z,100932.19
2023-05-04T18:30:48.085Z,100934.02
2023-05-04T18:33:14.705Z,100941.10
2023-05-04T18:35:41.915Z,100943.35
2023-05-04T18:38:08.608Z,100946.37
2023-05-04T18:40:35.390Z,100948.55
2023-05-04T18:43:02.016Z,100949.38
2023-05-04T18:45:28.677Z,100954.10
2023-05-04T18:47:55.425Z,100956.78
2023-05-04T18:50:22.010Z,100961.05
2023-05-04T18:52:48.638Z,100962.61
2023-05-04T18:55:15.242Z,100961.57
2023-05-04T18:57:41.842Z,100964.89
2023-05-04T19:00:09.304Z,100967.27
2023-05-04T19:02:37.177Z,100967.17
2023-05-04T19:05:04.010Z,100967.70
2023-05-04T19:07:30.673Z,100968.02
2023-05-04T19:09:57.657Z,100969.81
2023-05-04T19:12:24.563Z,100971.86
2023-05-04T19:14:51.325Z,100971.21
2023-05-04T19:17:18.727Z,100971.55
2023-05-04T19:19:45.594Z,100969.77
2023-05-04T19:22:13.403Z,100969.94
2023-05-04T19:24:40.152Z,100969.06
2023-05-04T19:27:07.378Z,100967.45
2023-05-04T19:29:34.218Z,100967.58
2023-05-04T19:32:05.585Z,100967.01
2023-05-04T19:34:42.996Z,100967.80
2023-05-04T19:37:09.905Z,100964.14
2023-05-04T19:39:36.791Z,100964.89
2023-05-04T19:42:03.625Z,100964.80
2023-05-04T19:44:30.312Z,100969.30
2023-05-04T19:46:57.229Z,100966.48
2023-05-04T19:49:25.037Z,100969.41
2023-05-04T19:51:51.881Z,100973.60
2023-05-04T19:54:18.660Z,100974.21
2023-05-04T19:56:45.506Z,100976.72
2023-05-04T19:59:12.343Z,100982.69
2023-05-04T20:01:39.085Z,100981.72
2023-05-04T20:04:08.300Z,100986.20
2023-05-04T20:06:36.166Z,100985.86
2023-05-04T20:09:03.967Z,100980.55
2023-05-04T20:11:31.040Z,100977.30
2023-05-04T20:13:57.901Z,100978.41
2023-05-04T20:16:24.698Z,100976.77
2023-05-04T20:18:51.350Z,100978.56
2023-05-04T20:21:18.088Z,100974.92
2023-05-04T20:23:45.141Z,100971.95
2023-05-04T20:26:12.108Z,100972.73
2023-05-04T20:28:39.285Z,100970.14
2023-05-04T20:31:07.697Z,100967.59
2023-05-04T20:33:34.791Z,100967.50
2023-05-04T20:36:02.540Z,100966.83
2023-05-04T20:38:29.259Z,100967.98
2023-05-04T20:40:56.059Z,100966.03
2023-05-04T20:43:23.009Z,100967.71
2023-05-04T20:45:49.736Z,100969.37
2023-05-04T20:48:16.582Z,100971.02
2023-05-04T20:50:43.418Z,100970.70
2023-05-04T20:53:10.097Z,100973.75
2023-05-04T20:55:37.275Z,100972.30
2023-05-04T20:58:03.934Z,100975.91
2023-05-04T21:00:32.382Z,100975.52
2023-05-04T21:03:00.530Z,100974.73
2023-05-04T21:05:27.460Z,100975.93
2023-05-04T21:07:54.447Z,100974.73
2023-05-04T21:10:21.433Z,100970.77
2023-05-04T21:12:48.413Z,100970.52
2023-05-04T21:15:15.300Z,100971.96
2023-05-04T21:17:42.092Z,100973.02
2023-05-04T21:20:09.580Z,100974.02
2023-05-04T21:22:37.203Z,100971.42
2023-05-04T21:25:04.517Z,100970.82
2023-05-04T21:27:31.758Z,100971.22
2023-05-04T21:29:58.727Z,100970.80
2023-05-04T21:32:29.197Z,100967.84
2023-05-04T21:34:56.382Z,100961.74
2023-05-04T21:37:23.071Z,100964.59
2023-05-04T21:39:55.793Z,100964.27
2023-05-04T21:42:23.876Z,100964.23
2023-05-04T21:44:55.314Z,100961.34
2023-05-04T21:47:25.806Z,100963.11
2023-05-04T21:49:53.849Z,100964.87
2023-05-04T21:52:21.128Z,100966.15
2023-05-04T21:54:47.818Z,100968.06
2023-05-04T21:57:14.876Z,100967.38
2023-05-04T21:59:41.561Z,100964.15
2023-05-04T22:02:09.952Z,100961.48
2023-05-04T22:04:36.861Z,100959.73
2023-05-04T22:07:03.613Z,100954.63
2023-05-04T22:09:30.288Z,100956.77
2023-05-04T22:11:57.127Z,100957.21
2023-05-04T22:14:23.714Z,100957.84
2023-05-04T22:16:52.982Z,100957.83
2023-05-04T22:19:19.653Z,100960.40
2023-05-04T22:21:46.278Z,100962.17
2023-05-04T22:24:12.870Z,100961.81
2023-05-04T22:26:40.834Z,100965.59
2023-05-04T22:29:07.383Z,100964.80
2023-05-04T22:31:33.965Z,100963.66
2023-05-04T22:34:00.816Z,100965.45
2023-05-04T22:36:27.597Z,100959.52
2023-05-04T22:38:54.166Z,100959.13
2023-05-04T22:41:21.288Z,100958.41
2023-05-04T22:43:47.894Z,100951.40
2023-05-04T22:46:16.842Z,100942.21
2023-05-04T22:48:46.711Z,100940.15
2023-05-04T22:51:14.727Z,100942.72
2023-05-04T22:53:41.370Z,100940.80
2023-05-04T22:56:08.517Z,100939.35
2023-05-04T22:58:35.540Z,100939.05
2023-05-04T23:01:02.812Z,100940.52
2023-05-04T23:03:29.489Z,100943.59
2023-05-04T23:05:59.910Z,100944.85
2023-05-04T23:08:26.552Z,100936.93
2023-05-04T23:10:53.199Z,100935.86
2023-05-04T23:13:19.772Z,100935.26
2023-05-04T23:15:46.761Z,100935.67
2023-05-04T23:18:15.435Z,100935.70
2023-05-04T23:20:42.872Z,100937.65
2023-05-04T23:23:09.438Z,100934.17
2023-05-04T23:25:36.398Z,100930.48
2023-05-04T23:28:03.644Z,100931.16
2023-05-04T23:30:30.338Z,100929.20
2023-05-04T23:32:57.839Z,100924.60
2023-05-04T23:35:24.493Z,100921.08
2023-05-04T23:37:51.236Z,100922.56
2023-05-04T23:40:17.858Z,100920.84
2023-05-04T23:42:48.097Z,100920.70
2023-05-04T23:45:14.699Z,100921.35
2023-05-04T23:47:41.249Z,100919.45
2023-05-04T23:50:08.629Z,100921.73
2023-05-04T23:52:35.380Z,100921.54
2023-05-04T23:55:02.187Z,100916.14
2023-05-04T23:57:28.731Z,100916.52
2023-05-04T23:59:55.395Z,100917.10
